createdAt,value
2023-04-27T00:02:17.666Z,100.00
2023-04-27T00:04:46.119Z,100.00
2023-04-27T00:07:14.781Z,100.00
2023-04-27T00:09:43.258Z,100.00
2023-04-27T00:12:13.655Z,100.00
2023-04-27T00:14:42.107Z,100.00
2023-04-27T00:17:10.118Z,100.00
2023-04-27T00:19:40.241Z,100.00
2023-04-27T00:22:09.155Z,100.00
2023-04-27T00:24:37.427Z,100.00
2023-04-27T00:27:06.180Z,100.00
2023-04-27T00:29:34.941Z,100.00
2023-04-27T00:32:03.277Z,100.00
2023-04-27T00:34:31.426Z,100.00
2023-04-27T00:37:00.965Z,100.00
2023-04-27T00:39:29.204Z,100.00
2023-04-27T00:41:57.427Z,100.00
2023-04-27T00:44:27.244Z,100.00
2023-04-27T00:46:56.294Z,100.00
2023-04-27T00:49:24.790Z,100.00
2023-04-27T00:51:52.596Z,100.00
2023-04-27T00:54:23.920Z,100.00
2023-04-27T00:56:52.829Z,100.00
2023-04-27T00:59:22.210Z,100.00
2023-04-27T01:01:50.701Z,100.00
2023-04-27T01:04:19.064Z,100.00
2023-04-27T01:06:47.213Z,100.00
2023-04-27T01:09:16.838Z,100.00
2023-04-27T01:11:44.903Z,100.00
2023-04-27T01:14:13.212Z,100.00
2023-04-27T01:16:41.336Z,100.00
2023-04-27T01:19:09.868Z,100.00
2023-04-27T01:21:38.293Z,100.00
2023-04-27T01:24:07.782Z,100.00
2023-04-27T01:26:36.200Z,100.00
2023-04-27T01:29:04.525Z,100.00
2023-04-27T01:31:33.196Z,100.00
2023-04-27T01:34:04.191Z,100.00
2023-04-27T01:36:32.751Z,100.00
2023-04-27T01:39:00.878Z,100.00
2023-04-27T01:41:51.454Z,100.00
2023-04-27T01:44:21.430Z,100.00
2023-04-27T01:46:49.565Z,100.00
2023-04-27T01:49:17.756Z,100.00
2023-04-27T01:51:45.799Z,100.00
2023-04-27T01:54:14.004Z,100.00
2023-04-27T01:56:42.443Z,100.00
2023-04-27T01:59:10.334Z,100.00
2023-04-27T02:01:38.832Z,100.00
2023-04-27T02:04:07.316Z,100.00
2023-04-27T02:06:36.800Z,100.00
2023-04-27T02:09:05.110Z,100.00
2023-04-27T02:11:33.532Z,100.00
2023-04-27T02:14:01.914Z,100.00
2023-04-27T02:16:30.418Z,100.00
2023-04-27T02:18:59.419Z,100.00
2023-04-27T02:21:28.712Z,100.00
2023-04-27T02:23:56.748Z,100.00
2023-04-27T02:26:31.352Z,100.00
2023-04-27T02:29:00.007Z,100.00
2023-04-27T02:31:28.599Z,100.00
2023-04-27T02:33:56.951Z,100.00
2023-04-27T02:36:25.365Z,100.00
2023-04-27T02:38:53.449Z,100.00
2023-04-27T02:41:21.541Z,100.00
2023-04-27T02:43:51.767Z,100.00
2023-04-27T02:46:19.933Z,100.00
2023-04-27T02:48:47.838Z,100.00
2023-04-27T02:51:16.171Z,100.00
2023-04-27T02:53:44.165Z,100.00
2023-04-27T02:56:12.261Z,100.00
2023-04-27T02:58:40.888Z,100.00
2023-04-27T03:01:10.021Z,100.00
2023-04-27T03:03:38.359Z,100.00
2023-04-27T03:06:07.050Z,100.00
2023-04-27T03:08:36.224Z,100.00
2023-04-27T03:11:29.497Z,100.00
2023-04-27T03:13:57.743Z,100.00
2023-04-27T03:16:26.245Z,100.00
2023-04-27T03:18:54.443Z,100.00
2023-04-27T03:21:22.625Z,100.00
2023-04-27T03:23:51.037Z,100.00
2023-04-27T03:26:19.202Z,100.00
2023-04-27T03:28:48.608Z,100.00
2023-04-27T03:31:17.646Z,100.00
2023-04-27T03:33:46.040Z,100.00
2023-04-27T03:36:14.446Z,100.00
2023-04-27T03:38:42.861Z,100.00
2023-04-27T03:41:11.112Z,100.00
2023-04-27T03:43:39.187Z,100.00
2023-04-27T03:46:07.394Z,100.00
2023-04-27T03:48:35.409Z,100.00
2023-04-27T03:51:03.833Z,100.00
2023-04-27T03:53:32.189Z,100.00
2023-04-27T03:56:02.700Z,100.00
2023-04-27T03:58:31.228Z,100.00
2023-04-27T04:00:59.760Z,100.00
2023-04-27T04:03:28.240Z,100.00
2023-04-27T04:05:56.726Z,100.00
2023-04-27T04:08:24.971Z,100.00
2023-04-27T04:10:52.791Z,100.00
2023-04-27T04:13:21.319Z,100.00
2023-04-27T04:15:49.429Z,100.00
2023-04-27T04:18:17.585Z,100.00
2023-04-27T04:20:45.535Z,100.00
2023-04-27T04:23:14.944Z,100.00
2023-04-27T04:25:43.661Z,100.00
2023-04-27T04:28:11.921Z,100.00
2023-04-27T04:30:40.830Z,100.00
2023-04-27T04:33:09.233Z,100.00
2023-04-27T04:35:41.814Z,100.00
2023-04-27T04:38:11.487Z,100.00
2023-04-27T04:40:39.746Z,100.00
2023-04-27T04:43:08.214Z,100.00
2023-04-27T04:45:37.361Z,100.00
2023-04-27T04:48:06.430Z,100.00
2023-04-27T04:50:34.556Z,100.00
2023-04-27T04:53:02.871Z,100.00
2023-04-27T04:55:30.764Z,100.00
2023-04-27T04:57:58.967Z,100.00
2023-04-27T05:00:30.127Z,100.00
2023-04-27T05:02:58.874Z,100.00
2023-04-27T05:05:27.181Z,100.00
2023-04-27T05:07:55.670Z,100.00
2023-04-27T05:10:23.985Z,100.00
2023-04-27T05:12:52.220Z,100.00
2023-04-27T05:15:20.198Z,100.00
2023-04-27T05:17:48.241Z,100.00
2023-04-27T05:20:16.337Z,100.00
2023-04-27T05:22:44.487Z,100.00
2023-04-27T05:25:12.851Z,100.00
2023-04-27T05:27:41.615Z,100.00
2023-04-27T05:30:11.771Z,100.00
2023-04-27T05:32:40.674Z,100.00
2023-04-27T05:35:08.880Z,100.00
2023-04-27T05:37:37.570Z,100.00
2023-04-27T05:40:09.985Z,100.00
2023-04-27T05:42:38.671Z,100.00
2023-04-27T05:45:07.394Z,100.00
2023-04-27T05:47:36.050Z,100.00
2023-04-27T05:50:05.625Z,100.00
2023-04-27T05:52:36.348Z,100.00
2023-04-27T05:55:13.607Z,100.00
2023-04-27T05:57:41.673Z,98.24
2023-04-27T06:00:13.224Z,68.91
2023-04-27T06:02:42.119Z,73.85
2023-04-27T06:05:10.544Z,81.72
2023-04-27T06:07:44.065Z,89.01
2023-04-27T06:10:12.245Z,85.56
2023-04-27T06:12:40.326Z,80.17
2023-04-27T06:15:09.590Z,70.19
2023-04-27T06:17:39.634Z,68.95
2023-04-27T06:20:09.626Z,69.70
2023-04-27T06:22:38.286Z,56.64
2023-04-27T06:25:07.214Z,47.88
2023-04-27T06:27:35.935Z,41.90
2023-04-27T06:30:05.375Z,39.15
2023-04-27T06:32:36.763Z,38.96
2023-04-27T06:35:05.540Z,39.25
2023-04-27T06:37:33.533Z,38.42
2023-04-27T06:40:01.800Z,38.74
2023-04-27T06:42:29.895Z,39.26
2023-04-27T06:45:02.480Z,39.44
2023-04-27T06:47:34.540Z,42.30
2023-04-27T06:50:02.455Z,44.94
2023-04-27T06:52:33.930Z,48.12
2023-04-27T06:55:01.937Z,52.84
2023-04-27T06:57:30.238Z,57.22
2023-04-27T06:59:58.778Z,59.79
2023-04-27T07:02:29.639Z,62.12
2023-04-27T07:04:57.583Z,65.20
2023-04-27T07:07:26.128Z,69.54
2023-04-27T07:09:54.658Z,69.70
2023-04-27T07:12:22.631Z,72.56
2023-04-27T07:14:51.555Z,72.79
2023-04-27T07:17:19.823Z,73.39
2023-04-27T07:19:48.371Z,75.47
2023-04-27T07:22:16.538Z,75.67
2023-04-27T07:24:44.856Z,77.08
2023-04-27T07:27:13.840Z,79.86
2023-04-27T07:29:42.704Z,80.38
2023-04-27T07:32:11.074Z,82.42
2023-04-27T07:34:51.866Z,81.51
2023-04-27T07:37:23.114Z,84.41
2023-04-27T07:39:54.862Z,82.43
2023-04-27T07:42:24.126Z,81.74
2023-04-27T07:44:52.749Z,81.38
2023-04-27T07:47:21.186Z,83.04
2023-04-27T07:49:49.322Z,84.72
2023-04-27T07:52:17.697Z,84.68
2023-04-27T07:54:46.216Z,83.03
2023-04-27T07:57:14.778Z,83.61
2023-04-27T07:59:43.221Z,83.62
2023-04-27T08:02:19.709Z,84.62
2023-04-27T08:04:49.948Z,82.91
2023-04-27T08:07:19.518Z,80.54
2023-04-27T08:09:47.635Z,79.35
2023-04-27T08:12:18.161Z,79.90
2023-04-27T08:14:47.571Z,79.49
2023-04-27T08:17:15.987Z,78.34
2023-04-27T08:19:44.376Z,77.82
2023-04-27T08:22:12.403Z,77.57
2023-04-27T08:24:41.022Z,76.61
2023-04-27T08:27:09.769Z,74.74
2023-04-27T08:29:38.938Z,73.58
2023-04-27T08:32:07.240Z,72.85
2023-04-27T08:34:35.536Z,71.71
2023-04-27T08:37:04.656Z,70.19
2023-04-27T08:39:33.494Z,69.65
2023-04-27T08:42:01.341Z,67.08
2023-04-27T08:44:30.080Z,64.68
2023-04-27T08:46:58.610Z,63.88
2023-04-27T08:49:27.509Z,64.43
2023-04-27T08:51:56.288Z,64.13
2023-04-27T08:54:25.139Z,65.18
2023-04-27T08:56:53.656Z,67.25
2023-04-27T08:59:21.685Z,67.24
2023-04-27T09:01:50.446Z,66.43
2023-04-27T09:04:20.549Z,66.00
2023-04-27T09:06:50.134Z,65.81
2023-04-27T09:09:25.570Z,67.04
2023-04-27T09:11:53.634Z,65.33
2023-04-27T09:14:23.233Z,64.46
2023-04-27T09:19:41.883Z,62.96
2023-04-27T09:22:12.095Z,63.26
2023-04-27T09:24:53.262Z,62.57
2023-04-27T09:27:22.239Z,62.82
2023-04-27T09:29:50.702Z,60.25
2023-04-27T09:32:21.348Z,57.49
2023-04-27T09:34:49.772Z,57.50
2023-04-27T09:37:18.373Z,57.31
2023-04-27T09:39:46.710Z,57.97
2023-04-27T09:42:17.808Z,57.90
2023-04-27T09:44:46.236Z,57.53
2023-04-27T09:47:14.794Z,56.35
2023-04-27T09:49:43.371Z,57.10
2023-04-27T09:52:11.382Z,57.70
2023-04-27T09:54:40.541Z,58.13
2023-04-27T09:57:47.105Z,56.39
2023-04-27T10:00:34.980Z,52.47
2023-04-27T10:03:17.257Z,50.93
2023-04-27T10:06:07.318Z,49.12
2023-04-27T10:08:36.895Z,48.90
2023-04-27T10:11:15.867Z,48.39
2023-04-27T10:13:55.009Z,46.34
2023-04-27T10:16:23.735Z,44.73
2023-04-27T10:18:56.166Z,43.76
2023-04-27T10:21:24.553Z,44.05
2023-04-27T10:23:53.428Z,43.87
2023-04-27T10:26:30.609Z,43.15
2023-04-27T10:29:08.572Z,43.38
2023-04-27T10:31:36.911Z,43.69
2023-04-27T10:34:09.262Z,41.84
2023-04-27T10:36:39.048Z,41.06
2023-04-27T10:39:39.641Z,41.44
2023-04-27T10:42:14.582Z,40.69
2023-04-27T10:44:43.416Z,40.13
2023-04-27T10:47:16.601Z,37.97
2023-04-27T10:49:44.771Z,37.61
2023-04-27T10:52:13.058Z,36.34
2023-04-27T10:54:47.751Z,37.31
2023-04-27T10:57:16.866Z,36.59
2023-04-27T10:59:52.686Z,37.66
2023-04-27T11:02:28.752Z,37.55
2023-04-27T11:04:57.734Z,35.55
2023-04-27T11:07:28.626Z,33.48
2023-04-27T11:09:56.502Z,32.91
2023-04-27T11:12:25.006Z,33.16
2023-04-27T11:14:58.996Z,32.93
2023-04-27T11:17:31.325Z,32.73
2023-04-27T11:19:59.842Z,31.43
2023-04-27T11:22:28.066Z,30.45
2023-04-27T11:24:56.985Z,30.40
2023-04-27T11:27:26.129Z,30.33
2023-04-27T11:29:54.076Z,31.03
2023-04-27T11:32:23.464Z,30.57
2023-04-27T11:34:59.551Z,29.91
2023-04-27T11:37:28.536Z,29.42
2023-04-27T11:40:01.283Z,31.12
2023-04-27T11:42:32.252Z,33.10
2023-04-27T11:45:00.380Z,32.19
2023-04-27T11:47:30.498Z,31.96
2023-04-27T11:50:05.692Z,33.01
2023-04-27T11:52:36.330Z,35.11
2023-04-27T11:55:05.623Z,35.13
2023-04-27T11:57:35.124Z,35.49
2023-04-27T12:00:11.472Z,35.78
2023-04-27T12:02:45.236Z,35.56
2023-04-27T12:05:14.763Z,36.01
2023-04-27T12:07:43.856Z,35.76
2023-04-27T12:10:12.260Z,35.91
2023-04-27T12:12:41.105Z,35.34
2023-04-27T12:15:10.257Z,34.56
2023-04-27T12:17:40.628Z,34.90
2023-04-27T12:20:09.371Z,35.39
2023-04-27T12:22:38.577Z,36.26
2023-04-27T12:25:07.057Z,35.91
2023-04-27T12:27:35.276Z,36.30
2023-04-27T12:30:04.997Z,36.85
2023-04-27T12:32:34.055Z,36.85
2023-04-27T12:35:02.486Z,37.68
2023-04-27T12:37:31.023Z,39.65
2023-04-27T12:40:01.305Z,39.98
2023-04-27T12:42:31.330Z,39.65
2023-04-27T12:44:59.492Z,40.57
2023-04-27T12:47:46.441Z,39.81
2023-04-27T12:50:16.156Z,40.09
2023-04-27T12:52:44.231Z,39.67
2023-04-27T12:55:24.896Z,39.42
2023-04-27T12:58:00.252Z,39.36
2023-04-27T13:00:30.162Z,38.79
2023-04-27T13:02:58.817Z,38.25
2023-04-27T13:05:28.732Z,39.06
2023-04-27T13:07:58.819Z,39.21
2023-04-27T13:10:27.115Z,39.26
2023-04-27T13:12:55.603Z,39.38
2023-04-27T13:15:23.713Z,39.41
2023-04-27T13:17:54.844Z,39.57
2023-04-27T13:20:23.804Z,39.46
2023-04-27T13:22:53.024Z,39.46
2023-04-27T13:25:24.248Z,39.69
2023-04-27T13:27:52.425Z,39.37
2023-04-27T13:30:20.522Z,39.16
2023-04-27T13:32:48.581Z,39.20
2023-04-27T13:35:16.885Z,39.38
2023-04-27T13:37:45.090Z,39.69
2023-04-27T13:40:13.204Z,39.16
2023-04-27T13:42:41.540Z,40.62
2023-04-27T13:45:10.256Z,40.39
2023-04-27T13:47:39.689Z,40.52
2023-04-27T13:50:10.077Z,39.99
2023-04-27T13:52:39.172Z,38.89
2023-04-27T13:55:10.333Z,38.90
2023-04-27T13:57:38.804Z,39.04
2023-04-27T14:00:11.820Z,38.55
2023-04-27T14:02:40.893Z,39.01
2023-04-27T14:05:09.343Z,38.60
2023-04-27T14:07:38.047Z,38.48
2023-04-27T14:10:07.247Z,38.68
2023-04-27T14:12:36.490Z,38.29
2023-04-27T14:15:04.976Z,38.82
2023-04-27T14:17:34.322Z,39.24
2023-04-27T14:20:07.476Z,39.43
2023-04-27T14:22:36.513Z,38.98
2023-04-27T14:25:05.133Z,38.43
2023-04-27T14:27:35.704Z,38.31
2023-04-27T14:30:04.297Z,38.92
2023-04-27T14:32:33.494Z,39.94
2023-04-27T14:35:01.763Z,40.65
2023-04-27T14:37:30.279Z,41.61
2023-04-27T14:39:58.545Z,42.17
2023-04-27T14:42:26.811Z,43.54
2023-04-27T14:44:55.023Z,44.12
2023-04-27T14:47:23.254Z,44.86
2023-04-27T14:49:51.927Z,45.38
2023-04-27T14:52:20.277Z,45.94
2023-04-27T14:54:48.474Z,46.38
2023-04-27T14:57:18.474Z,46.85
2023-04-27T14:59:46.829Z,47.18
2023-04-27T15:02:15.119Z,47.61
2023-04-27T15:04:43.158Z,47.91
2023-04-27T15:07:11.467Z,47.90
2023-04-27T15:09:39.610Z,47.73
2023-04-27T15:12:08.261Z,48.88
2023-04-27T15:14:36.416Z,52.03
2023-04-27T15:17:05.090Z,57.34
2023-04-27T15:19:33.549Z,62.22
2023-04-27T15:22:02.151Z,65.68
2023-04-27T15:24:33.119Z,71.40
2023-04-27T15:27:01.856Z,76.27
2023-04-27T15:29:30.212Z,79.26
2023-04-27T15:31:58.245Z,83.48
2023-04-27T15:34:26.557Z,86.16
2023-04-27T15:36:55.284Z,87.68
2023-04-27T15:39:24.291Z,89.74
2023-04-27T15:41:52.762Z,92.16
2023-04-27T15:44:22.183Z,94.57
2023-04-27T15:46:50.299Z,96.68
2023-04-27T15:49:18.537Z,97.94
2023-04-27T15:51:46.625Z,98.80
2023-04-27T15:54:14.717Z,100.00
2023-04-27T15:56:42.944Z,100.00
2023-04-27T15:59:10.807Z,100.00
2023-04-27T16:01:40.388Z,100.00
2023-04-27T16:04:09.408Z,100.00
2023-04-27T16:06:40.140Z,100.00
2023-04-27T16:09:11.990Z,100.00
2023-04-27T16:11:40.722Z,98.85
2023-04-27T16:14:12.383Z,97.79
2023-04-27T16:16:42.783Z,98.26
2023-04-27T16:19:13.831Z,98.32
2023-04-27T16:21:42.108Z,99.04
2023-04-27T16:24:10.066Z,100.00
2023-04-27T16:26:38.692Z,100.00
2023-04-27T16:29:07.478Z,100.00
2023-04-27T16:31:35.906Z,100.00
2023-04-27T16:34:04.350Z,100.00
2023-04-27T16:36:35.182Z,100.00
2023-04-27T16:39:05.274Z,100.00
2023-04-27T16:41:33.549Z,100.00
2023-04-27T16:44:01.378Z,100.00
2023-04-27T16:46:29.703Z,100.00
2023-04-27T16:48:57.958Z,100.00
2023-04-27T16:51:27.133Z,100.00
2023-04-27T16:53:55.543Z,100.00
2023-04-27T16:56:34.885Z,100.00
2023-04-27T16:59:04.628Z,100.00
2023-04-27T17:01:33.767Z,100.00
2023-04-27T17:04:03.065Z,100.00
2023-04-27T17:06:31.912Z,100.00
2023-04-27T17:09:00.419Z,100.00
2023-04-27T17:11:30.985Z,100.00
2023-04-27T17:13:59.258Z,100.00
2023-04-27T17:16:27.552Z,100.00
2023-04-27T17:18:56.646Z,100.00
2023-04-27T17:21:32.220Z,100.00
2023-04-27T17:24:00.874Z,100.00
2023-04-27T17:26:53.885Z,100.00
2023-04-27T17:29:22.527Z,100.00
2023-04-27T17:31:50.802Z,100.00
2023-04-27T17:34:18.990Z,100.00
2023-04-27T17:36:47.113Z,100.00
2023-04-27T17:39:15.695Z,100.00
2023-04-27T17:41:44.420Z,100.00
2023-04-27T17:44:13.265Z,100.00
2023-04-27T17:46:49.291Z,100.00
2023-04-27T17:49:18.243Z,100.00
2023-04-27T17:51:49.653Z,100.00
2023-04-27T17:54:18.309Z,100.00
2023-04-27T17:56:46.934Z,100.00
2023-04-27T17:59:17.745Z,100.00
2023-04-27T18:01:45.983Z,100.00
2023-04-27T18:04:14.046Z,100.00
2023-04-27T18:06:42.308Z,100.00
2023-04-27T18:09:10.801Z,100.00
2023-04-27T18:11:39.876Z,100.00
2023-04-27T18:14:07.867Z,100.00
2023-04-27T18:16:36.218Z,100.00
2023-04-27T18:19:07.074Z,100.00
2023-04-27T18:21:37.729Z,100.00
2023-04-27T18:24:06.640Z,100.00
2023-04-27T18:26:37.295Z,100.00
2023-04-27T18:29:05.717Z,100.00
2023-04-27T18:31:35.641Z,100.00
2023-04-27T18:34:06.473Z,100.00
2023-04-27T18:36:34.712Z,100.00
2023-04-27T18:39:03.309Z,100.00
2023-04-27T18:41:32.258Z,100.00
2023-04-27T18:44:06.887Z,100.00
2023-04-27T18:46:35.646Z,100.00
2023-04-27T18:49:03.678Z,100.00
2023-04-27T18:51:32.464Z,100.00
2023-04-27T18:54:00.468Z,100.00
2023-04-27T18:56:28.645Z,100.00
2023-04-27T18:58:56.877Z,100.00
2023-04-27T19:01:32.833Z,100.00
2023-04-27T19:04:01.116Z,100.00
2023-04-27T19:06:29.428Z,100.00
2023-04-27T19:08:58.268Z,100.00
2023-04-27T19:11:27.031Z,100.00
2023-04-27T19:13:55.117Z,100.00
2023-04-27T19:16:25.070Z,100.00
2023-04-27T19:18:53.086Z,100.00
2023-04-27T19:21:21.381Z,100.00
2023-04-27T19:23:50.024Z,100.00
2023-04-27T19:26:20.643Z,100.00
2023-04-27T19:28:49.104Z,100.00
2023-04-27T19:31:20.121Z,100.00
2023-04-27T19:36:23.353Z,100.00
2023-04-27T19:38:51.801Z,100.00
2023-04-27T19:41:20.068Z,100.00
2023-04-27T19:43:49.988Z,100.00
2023-04-27T19:46:18.624Z,100.00
2023-04-27T19:48:46.938Z,100.00
2023-04-27T19:51:15.293Z,100.00
2023-04-27T19:53:43.362Z,100.00
2023-04-27T19:56:14.556Z,100.00
2023-04-27T19:58:42.597Z,100.00
2023-04-27T20:01:12.951Z,100.00
2023-04-27T20:03:41.897Z,100.00
2023-04-27T20:06:10.636Z,100.00
2023-04-27T20:08:39.202Z,100.00
2023-04-27T20:11:07.132Z,100.00
2023-04-27T20:13:36.360Z,100.00
2023-04-27T20:16:05.396Z,100.00
2023-04-27T20:18:34.179Z,100.00
2023-04-27T20:21:03.816Z,100.00
2023-04-27T20:23:32.321Z,100.00
2023-04-27T20:26:00.978Z,100.00
2023-04-27T20:28:30.617Z,100.00
2023-04-27T20:30:59.038Z,100.00
2023-04-27T20:33:27.465Z,100.00
2023-04-27T20:36:03.709Z,100.00
2023-04-27T20:38:38.449Z,100.00
2023-04-27T20:41:06.595Z,100.00
2023-04-27T20:43:34.889Z,100.00
2023-04-27T20:46:03.039Z,100.00
2023-04-27T20:48:34.078Z,100.00
2023-04-27T20:51:02.388Z,100.00
2023-04-27T20:53:31.439Z,100.00
2023-04-27T20:55:59.547Z,100.00
2023-04-27T20:58:27.962Z,100.00
2023-04-27T21:00:56.111Z,100.00
2023-04-27T21:03:24.364Z,100.00
2023-04-27T21:05:52.513Z,100.00
2023-04-27T21:08:21.298Z,100.00
2023-04-27T21:10:49.714Z,100.00
2023-04-27T21:13:20.653Z,100.00
2023-04-27T21:15:49.049Z,100.00
2023-04-27T21:18:29.076Z,100.00
2023-04-27T21:20:59.670Z,100.00
2023-04-27T21:23:27.919Z,100.00
2023-04-27T21:25:57.710Z,100.00
2023-04-27T21:28:27.272Z,100.00
2023-04-27T21:30:58.669Z,100.00
2023-04-27T21:33:26.735Z,100.00
2023-04-27T21:35:55.313Z,100.00
2023-04-27T21:38:23.590Z,100.00
2023-04-27T21:40:52.138Z,100.00
2023-04-27T21:43:20.307Z,100.00
2023-04-27T21:45:49.493Z,100.00
2023-04-27T21:48:21.110Z,100.00
2023-04-27T21:50:51.986Z,100.00
2023-04-27T21:53:20.487Z,100.00
2023-04-27T21:55:49.742Z,100.00
2023-04-27T21:58:17.726Z,100.00
2023-04-27T22:00:45.982Z,100.00
2023-04-27T22:03:14.528Z,100.00
2023-04-27T22:05:43.101Z,100.00
2023-04-27T22:08:11.415Z,100.00
2023-04-27T22:10:39.738Z,100.00
2023-04-27T22:13:18.699Z,100.00
2023-04-27T22:15:52.338Z,100.00
2023-04-27T22:18:20.785Z,100.00
2023-04-27T22:20:49.755Z,100.00
2023-04-27T22:23:19.884Z,100.00
2023-04-27T22:25:48.017Z,100.00
2023-04-27T22:28:16.238Z,100.00
2023-04-27T22:30:44.772Z,100.00
2023-04-27T22:33:13.414Z,100.00
2023-04-27T22:35:41.961Z,100.00
2023-04-27T22:38:10.442Z,100.00
2023-04-27T22:40:38.531Z,100.00
2023-04-27T22:43:06.874Z,100.00
2023-04-27T22:45:36.147Z,100.00
2023-04-27T22:48:07.578Z,100.00
2023-04-27T22:50:36.055Z,100.00
2023-04-27T22:53:05.196Z,100.00
2023-04-27T22:55:33.936Z,100.00
2023-04-27T22:58:05.139Z,100.00
2023-04-27T23:00:33.908Z,100.00
2023-04-27T23:03:02.646Z,100.00
2023-04-27T23:05:31.376Z,100.00
2023-04-27T23:08:00.214Z,100.00
2023-04-27T23:10:31.320Z,100.00
2023-04-27T23:13:02.400Z,100.00
2023-04-27T23:15:31.593Z,100.00
2023-04-27T23:18:00.179Z,100.00
2023-04-27T23:20:29.334Z,100.00
2023-04-27T23:22:58.268Z,100.00
2023-04-27T23:25:26.560Z,100.00
2023-04-27T23:27:54.661Z,100.00
2023-04-27T23:30:22.900Z,100.00
2023-04-27T23:32:51.095Z,100.00
2023-04-27T23:35:19.528Z,100.00
2023-04-27T23:37:47.877Z,100.00
2023-04-27T23:40:15.879Z,100.00
2023-04-27T23:42:44.031Z,100.00
2023-04-27T23:45:14.687Z,100.00
2023-04-27T23:47:43.297Z,100.00
2023-04-27T23:50:11.407Z,100.00
2023-04-27T23:52:40.106Z,100.00
2023-04-27T23:55:08.563Z,100.00
2023-04-27T23:57:36.551Z,100.00
